DW4098 Weather Reports


Display with metric or nautical units.
time (UTC)temp
F
wind
direction
speed
MPH
gust
MPH
rain 1hr
in
rain 24hr
in
rain mn
in
humidity
%
barometer
mb
20190325094006 78 313 2.0 10.0 0.00 0.04 0.04 72 1016.4
20190325093005 78 318 3.0 11.0 0.00 0.04 0.04 72 1016.4
20190325092005 79 323 5.0 11.0 0.00 0.04 0.04 72 1016.4
20190325091005 78 320 7.0 12.0 0.00 0.04 0.04 73 1016.4
20190325090006 78 330 1.0 6.0 0.00 0.04 0.04 73 1016.4
20190325085005 78 329 2.0 6.0 0.00 0.04 0.04 71 1016.4
20190325084005 78 309 0.0 4.0 0.00 0.04 0.04 69 1016.4
20190325083006 78 326 1.0 4.0 0.00 0.04 0.04 68 1016.4
20190325082005 79 334 1.0 6.0 0.00 0.04 0.04 67 1016.4
20190325081005 79 314 2.0 8.0 0.00 0.04 0.04 67 1015.4
20190325080006 79 303 3.0 8.0 0.00 0.04 0.04 67 1015.4
20190325075006 79 305 4.0 9.0 0.00 0.04 0.04 67 1016.4
20190325074005 79 304 4.0 13.0 0.00 0.04 0.04 66 1016.4
20190325073005 79 306 5.0 12.0 0.00 0.04 0.04 65 1016.4
20190325072005 80 307 8.0 14.0 0.00 0.04 0.04 64 1016.4
20190325071008 80 299 8.0 13.0 0.00 0.04 0.04 63 1016.4
20190325070006 80 307 9.0 17.0 0.00 0.04 0.04 62 1016.4
20190325065006 80 323 9.0 16.0 0.00 0.04 0.04 62 1015.4
20190325064005 80 327 9.0 17.0 0.00 0.04 0.04 63 1015.4
20190325063005 80 318 11.0 19.0 0.00 0.04 0.04 62 1015.4
20190325062006 80 328 13.0 17.0 0.00 0.04 0.04 61 1015.4
20190325061005 80 321 13.0 26.0 0.00 0.04 0.04 61 1013.4
20190325060006 80 323 12.0 22.0 0.00 0.04 0.04 63 1013.4
20190325055005 80 315 10.0 20.0 0.00 0.04 0.04 63 1013.4
20190325054006 80 316 9.0 15.0 0.00 0.04 0.04 64 1014.4
20190325053006 80 327 5.0 13.0 0.00 0.04 0.04 66 1014.4
20190325052006 80 309 11.0 24.0 0.00 0.04 0.04 65 1014.4
20190325051005 80 307 13.0 22.0 0.00 0.04 0.04 65 1014.4
20190325050005 81 320 15.0 26.0 0.00 0.04 0.04 64 1014.4
20190325045006 81 316 15.0 25.0 0.00 0.04 0.04 64 1014.4
20190325044006 82 321 15.0 23.0 0.00 0.04 0.04 64 1014.4
20190325043006 82 320 17.0 25.0 0.00 0.04 0.04 63 1014.4
20190325042006 83 319 14.0 24.0 0.00 0.04 0.04 64 1015.4
20190325041005 82 322 12.0 19.0 0.00 0.04 0.04 66 1015.4
20190325040006 82 325 11.0 17.0 0.00 0.04 0.04 67 1015.4
20190325035006 81 329 13.0 19.0 0.00 0.04 0.04 67 1015.4
20190325034005 80 324 14.0 22.0 0.00 0.04 0.04 69 1016.4
20190325033006 80 325 15.0 20.0 0.00 0.04 0.04 70 1016.4
20190325032005 81 329 11.0 17.0 0.00 0.04 0.04 69 1016.4
20190325031006 81 320 13.0 23.0 0.00 0.04 0.04 72 1016.4
20190325030006 80 315 12.0 23.0 0.00 0.04 0.04 75 1016.4
20190325025006 80 317 8.0 15.0 0.00 0.04 0.04 76 1015.4
20190325024006 80 308 9.0 15.0 0.00 0.04 0.04 78 1016.4
20190325023006 80 300 7.0 13.0 0.00 0.04 0.04 79 1016.4
20190325022006 80 308 10.0 17.0 0.00 0.04 0.04 79 1015.4
20190325021006 79 312 10.0 13.0 0.00 0.04 0.04 80 1015.4
20190325020006 79 338 9.0 13.0 0.00 0.04 0.04 82 1015.4
20190325015006 78 323 10.0 12.0 0.00 0.04 0.04 85 1016.4
20190325014006 78 329 8.0 15.0 0.00 0.04 0.04 85 1016.4
20190325013007 77 317 9.0 15.0 0.00 0.04 0.04 87 1016.4
20190325012005 77 336 9.0 15.0 0.00 0.04 0.04 88 1016.4
20190325011006 76 334 6.0 11.0 0.04 0.04 0.04 91 1017.4
20190325010006 75 325 4.0 10.0 0.04 0.04 0.04 91 1017.4
20190325005006 76 307 2.0 9.0 0.04 0.04 0.04 94 1017.4
20190325004006 74 327 1.0 5.0 0.04 0.04 0.04 93 1018.4
20190325003006 74 316 0.0 3.0 0.04 0.04 0.04 92 1018.4
20190325002006 74 314 0.0 2.0 0.04 0.04 0.04 90 1018.4
20190325001006 75 292 0.0 1.0 0.00 0.00 0.00 87 1018.4
20190325000006 75 314 0.0 4.0 0.00 0.00 0.00 82 1018.4
20190324235006 76 0 0.0 0.0 0.00 0.00 0.00 82 1018.4
20190324234006 75 314 0.0 1.0 0.00 0.00 0.00 80 1018.4
20190324233006 75 1 0.0 1.0 0.00 0.00 0.00 81 1018.4
20190324232006 74 0 0.0 0.0 0.00 0.00 0.00 82 1018.4
20190324231006 74 0 0.0 0.0 0.00 0.00 0.00 82 1018.4
20190324230006 74 0 0.0 0.0 0.00 0.00 0.00 82 1018.4
20190324225006 74 0 0.0 0.0 0.00 0.00 0.00 81 1018.4
20190324224006 74 193 1.0 5.0 0.00 0.00 0.00 81 1018.4
20190324223006 74 239 0.0 4.0 0.00 0.00 0.00 82 1018.4
20190324222006 74 199 0.0 6.0 0.00 0.00 0.00 82 1018.4
20190324221006 74 206 0.0 2.0 0.00 0.00 0.00 83 1018.4
20190324220006 73 232 0.0 4.0 0.00 0.00 0.00 84 1018.4
20190324215006 74 211 1.0 7.0 0.00 0.00 0.00 86 1018.4
20190324214006 74 202 1.0 6.0 0.00 0.00 0.00 86 1017.4
20190324213007 73 202 2.0 8.0 0.00 0.00 0.00 87 1017.4
20190324212006 73 213 1.0 6.0 0.00 0.00 0.00 91 1017.4
20190324211007 73 232 1.0 6.0 0.00 0.00 0.00 95 1017.4
20190324210007 72 0 0.0 0.0 0.00 0.00 0.00 95 1017.4
20190324205006 72 0 0.0 0.0 0.00 0.00 0.00 95 1016.4
20190324204006 72 0 0.0 0.0 0.00 0.00 0.00 95 1016.4
20190324203007 72 0 0.0 0.0 0.00 0.00 0.00 95 1016.4
20190324202007 72 158 0.0 1.0 0.00 0.00 0.00 94 1016.4
20190324201006 72 0 0.0 0.0 0.00 0.00 0.00 94 1016.4
20190324200007 72 0 0.0 0.0 0.00 0.00 0.00 94 1016.4
20190324195007 72 0 0.0 0.0 0.00 0.00 0.00 95 1016.4
20190324194007 72 0 0.0 0.0 0.00 0.00 0.00 95 1016.4
20190324193007 72 0 0.0 0.0 0.00 0.00 0.00 95 1016.4
20190324192006 72 314 0.0 3.0 0.00 0.00 0.00 95 1014.4
20190324191006 71 0 0.0 0.0 0.00 0.00 0.00 95 1014.4
20190324190007 71 0 0.0 0.0 0.00 0.00 0.00 95 1014.4
20190324185007 71 0 0.0 0.0 0.00 0.00 0.00 95 1014.4
20190324184007 71 0 0.0 0.0 0.00 0.00 0.00 95 1014.4
20190324183007 71 292 0.0 1.0 0.00 0.00 0.00 95 1014.4
20190324182007 71 225 0.0 1.0 0.00 0.00 0.00 95 1014.4
20190324181006 71 0 0.0 0.0 0.00 0.00 0.00 95 1014.4
20190324180007 71 0 0.0 0.0 0.00 0.00 0.00 95 1014.4
20190324175006 71 112 0.0 2.0 0.00 0.00 0.00 95 1014.4
20190324174007 71 0 0.0 0.0 0.00 0.00 0.00 95 1015.4
20190324173007 71 0 0.0 0.0 0.00 0.00 0.00 95 1015.4
20190324172006 72 0 0.0 0.0 0.00 0.00 0.00 94 1014.4
20190324171007 72 0 0.0 0.0 0.00 0.00 0.00 95 1014.4
20190324170007 72 0 0.0 0.0 0.00 0.00 0.00 94 1014.4
20190324165008 72 0 0.0 0.0 0.00 0.00 0.00 94 1014.4
20190324164008 72 0 0.0 0.0 0.00 0.00 0.00 94 1015.4
20190324163006 72 0 0.0 0.0 0.00 0.00 0.00 94 1015.4
20190324162007 72 181 0.0 1.0 0.00 0.00 0.00 93 1015.4
20190324161007 72 203 0.0 1.0 0.00 0.00 0.00 93 1014.4
20190324160007 72 73 0.0 5.0 0.00 0.00 0.00 92 1014.4
20190324155006 72 46 0.0 4.0 0.00 0.00 0.00 92 1016.4
20190324154007 73 57 0.0 2.0 0.00 0.00 0.00 92 1016.4
20190324153007 73 306 0.0 4.0 0.00 0.00 0.00 93 1016.4
20190324152007 73 0 0.0 0.0 0.00 0.00 0.00 93 1016.4
20190324151007 72 0 0.0 0.0 0.00 0.00 0.00 92 1016.4
20190324150008 72 0 0.0 0.0 0.00 0.00 0.00 92 1016.4
20190324145007 72 0 0.0 0.0 0.00 0.00 0.00 91 1015.4
20190324144009 72 0 0.0 0.0 0.00 0.00 0.00 91 1016.4
20190324143008 72 0 0.0 0.0 0.00 0.00 0.00 91 1016.4
20190324142007 72 0 0.0 0.0 0.00 0.00 0.00 91 1016.4
20190324141007 72 0 0.0 0.0 0.00 0.00 0.00 91 1016.4
20190324140007 72 0 0.0 0.0 0.00 0.00 0.00 91 1016.4
20190324135007 72 0 0.0 0.0 0.00 0.00 0.00 91 1016.4
20190324134007 72 0 0.0 0.0 0.00 0.00 0.00 91 1016.4
20190324133007 72 0 0.0 0.0 0.00 0.00 0.00 90 1016.4
20190324132007 73 0 0.0 0.0 0.00 0.00 0.00 90 1017.4
20190324131007 73 0 0.0 0.0 0.00 0.00 0.00 90 1016.4
20190324130015 73 0 0.0 0.0 0.00 0.00 0.00 90 1016.4
20190324125007 73 0 0.0 0.0 0.00 0.00 0.00 90 1017.4
20190324124008 73 0 0.0 0.0 0.00 0.00 0.00 90 1017.4
20190324123008 74 0 0.0 0.0 0.00 0.00 0.00 88 1017.4
20190324122007 74 0 0.0 0.0 0.00 0.00 0.00 88 1017.4
20190324121007 74 0 0.0 0.0 0.00 0.00 0.00 87 1017.4
20190324120007 75 0 0.0 0.0 0.00 0.00 0.00 86 1017.4
20190324115008 75 0 0.0 0.0 0.00 0.00 0.00 85 1017.4
20190324114007 75 0 0.0 0.0 0.00 0.00 0.00 85 1017.4
20190324113008 75 0 0.0 0.0 0.00 0.00 0.00 85 1017.4
20190324112007 75 0 0.0 0.0 0.00 0.00 0.00 83 1017.4
20190324111007 75 0 0.0 0.0 0.00 0.00 0.00 83 1017.4
20190324110008 75 0 0.0 0.0 0.00 0.04 0.00 82 1017.4
20190324105008 75 0 0.0 0.0 0.00 0.04 0.00 82 1017.4
20190324104007 75 135 0.0 1.0 0.00 0.04 0.00 82 1017.4
20190324103007 75 158 0.0 1.0 0.00 0.09 0.00 82 1017.4
20190324102007 75 0 0.0 0.0 0.00 0.09 0.00 82 1017.4
20190324101007 76 103 1.0 5.0 0.00 0.09 0.00 80 1017.4
20190324100007 76 133 1.0 4.0 0.00 0.09 0.00 79 1017.4
20190324095008 76 135 0.0 4.0 0.00 0.09 0.00 79 1016.4